sensor_id;sensor_type;location;lat;lon;timestamp;temperature;humidity
18593;DHT22;9426;54.118;17.948;2023-03-14T00:04:05;8.40;99.90
18593;DHT22;9426;54.118;17.948;2023-03-14T00:09:32;8.40;99.90
18593;DHT22;9426;54.118;17.948;2023-03-14T00:15:02;8.50;99.90
18593;DHT22;9426;54.118;17.948;2023-03-14T00:20:35;7.30;99.90
18593;DHT22;9426;54.118;17.948;2023-03-14T00:26:23;8.50;99.90
18593;DHT22;9426;54.118;17.948;2023-03-14T00:31:59;8.40;99.90
18593;DHT22;9426;54.118;17.948;2023-03-14T00:37:40;7.70;99.90
18593;DHT22;9426;54.118;17.948;2023-03-14T03:20:03;8.70;99.90
18593;DHT22;9426;54.118;17.948;2023-03-14T03:58:01;8.20;99.90
18593;DHT22;9426;54.118;17.948;2023-03-14T04:03:52;8.40;99.90
18593;DHT22;9426;54.118;17.948;2023-03-14T06:28:15;9.70;99.90
18593;DHT22;9426;54.118;17.948;2023-03-14T06:33:51;9.70;99.90
18593;DHT22;9426;54.118;17.948;2023-03-14T11:37:37;12.80;99.90
18593;DHT22;9426;54.118;17.948;2023-03-14T11:43:21;14.00;99.90
18593;DHT22;9426;54.118;17.948;2023-03-14T11:49:08;14.10;99.90
18593;DHT22;9426;54.118;17.948;2023-03-14T11:54:46;13.80;99.90
18593;DHT22;9426;54.118;17.948;2023-03-14T12:00:17;13.50;99.90
18593;DHT22;9426;54.118;17.948;2023-03-14T12:05:54;13.70;99.90
18593;DHT22;9426;54.118;17.948;2023-03-14T12:11:35;13.90;99.90
18593;DHT22;9426;54.118;17.948;2023-03-14T12:17:06;14.10;99.90
18593;DHT22;9426;54.118;17.948;2023-03-14T12:22:32;13.80;99.90
18593;DHT22;9426;54.118;17.948;2023-03-14T12:28:18;14.10;99.90
18593;DHT22;9426;54.118;17.948;2023-03-14T12:33:42;15.10;99.90
18593;DHT22;9426;54.118;17.948;2023-03-14T12:39:13;15.10;99.90
18593;DHT22;9426;54.118;17.948;2023-03-14T12:44:47;14.10;99.90
18593;DHT22;9426;54.118;17.948;2023-03-14T12:50:18;13.70;99.90
18593;DHT22;9426;54.118;17.948;2023-03-14T12:55:46;13.60;99.90
18593;DHT22;9426;54.118;17.948;2023-03-14T13:01:18;14.20;99.90
18593;DHT22;9426;54.118;17.948;2023-03-14T13:06:49;13.80;99.90
18593;DHT22;9426;54.118;17.948;2023-03-14T13:12:14;13.30;99.90
18593;DHT22;9426;54.118;17.948;2023-03-14T13:17:41;13.30;99.90
18593;DHT22;9426;54.118;17.948;2023-03-14T13:23:19;14.30;99.90
18593;DHT22;9426;54.118;17.948;2023-03-14T13:28:43;14.40;99.90
18593;DHT22;9426;54.118;17.948;2023-03-14T13:34:10;15.20;99.90
18593;DHT22;9426;54.118;17.948;2023-03-14T13:39:34;16.70;99.90
18593;DHT22;9426;54.118;17.948;2023-03-14T13:44:57;16.10;99.90
18593;DHT22;9426;54.118;17.948;2023-03-14T13:50:22;15.00;99.90
18593;DHT22;9426;54.118;17.948;2023-03-14T13:55:46;14.70;99.90
18593;DHT22;9426;54.118;17.948;2023-03-14T14:01:15;14.30;99.90
18593;DHT22;9426;54.118;17.948;2023-03-14T14:06:47;14.10;99.90
18593;DHT22;9426;54.118;17.948;2023-03-14T14:12:15;13.70;99.90
18593;DHT22;9426;54.118;17.948;2023-03-14T14:17:43;13.60;99.90
18593;DHT22;9426;54.118;17.948;2023-03-14T14:23:11;13.60;99.90
18593;DHT22;9426;54.118;17.948;2023-03-14T14:28:37;13.50;99.90
18593;DHT22;9426;54.118;17.948;2023-03-14T14:34:03;13.60;99.90
18593;DHT22;9426;54.118;17.948;2023-03-14T14:39:28;14.50;99.90
18593;DHT22;9426;54.118;17.948;2023-03-14T14:44:53;14.70;99.90
18593;DHT22;9426;54.118;17.948;2023-03-14T14:50:26;14.00;99.90
18593;DHT22;9426;54.118;17.948;2023-03-14T14:55:54;13.50;99.90
18593;DHT22;9426;54.118;17.948;2023-03-14T15:01:20;13.20;99.90
18593;DHT22;9426;54.118;17.948;2023-03-14T15:06:47;12.90;99.90
18593;DHT22;9426;54.118;17.948;2023-03-14T15:12:17;12.50;99.90
18593;DHT22;9426;54.118;17.948;2023-03-14T15:17:42;12.40;99.90
18593;DHT22;9426;54.118;17.948;2023-03-14T15:23:10;11.90;99.90
18593;DHT22;9426;54.118;17.948;2023-03-14T15:28:35;11.50;99.90
18593;DHT22;9426;54.118;17.948;2023-03-14T15:33:59;10.90;99.90
18593;DHT22;9426;54.118;17.948;2023-03-14T15:39:23;10.60;99.90
18593;DHT22;9426;54.118;17.948;2023-03-14T15:44:49;10.50;99.90
18593;DHT22;9426;54.118;17.948;2023-03-14T15:50:12;10.70;99.90
18593;DHT22;9426;54.118;17.948;2023-03-14T15:55:36;10.70;99.90
18593;DHT22;9426;54.118;17.948;2023-03-14T16:01:03;10.70;99.90
18593;DHT22;9426;54.118;17.948;2023-03-14T16:06:26;10.50;99.90
18593;DHT22;9426;54.118;17.948;2023-03-14T16:11:50;10.50;99.90
18593;DHT22;9426;54.118;17.948;2023-03-14T16:17:16;10.30;99.90
18593;DHT22;9426;54.118;17.948;2023-03-14T16:22:40;10.20;99.90
18593;DHT22;9426;54.118;17.948;2023-03-14T16:28:04;10.10;99.90
18593;DHT22;9426;54.118;17.948;2023-03-14T16:33:34;10.00;99.90
18593;DHT22;9426;54.118;17.948;2023-03-14T16:38:58;10.00;99.90
18593;DHT22;9426;54.118;17.948;2023-03-14T16:44:22;9.80;99.90
18593;DHT22;9426;54.118;17.948;2023-03-14T16:49:47;9.70;99.90
18593;DHT22;9426;54.118;17.948;2023-03-14T16:55:11;9.60;99.90
18593;DHT22;9426;54.118;17.948;2023-03-14T17:00:34;9.60;99.90
18593;DHT22;9426;54.118;17.948;2023-03-14T17:06:00;9.40;99.90
18593;DHT22;9426;54.118;17.948;2023-03-14T17:11:24;9.30;99.90
18593;DHT22;9426;54.118;17.948;2023-03-14T17:16:48;9.30;99.90
18593;DHT22;9426;54.118;17.948;2023-03-14T17:22:13;9.30;99.90
18593;DHT22;9426;54.118;17.948;2023-03-14T17:27:44;9.00;99.90
18593;DHT22;9426;54.118;17.948;2023-03-14T17:33:08;8.70;99.90
18593;DHT22;9426;54.118;17.948;2023-03-14T17:38:39;8.50;99.90
18593;DHT22;9426;54.118;17.948;2023-03-14T17:44:03;8.40;99.90
18593;DHT22;9426;54.118;17.948;2023-03-14T17:49:27;8.40;99.90
18593;DHT22;9426;54.118;17.948;2023-03-14T17:54:52;8.50;99.90
18593;DHT22;9426;54.118;17.948;2023-03-14T18:00:17;8.60;99.90
18593;DHT22;9426;54.118;17.948;2023-03-14T18:05:40;8.80;99.90
18593;DHT22;9426;54.118;17.948;2023-03-14T18:11:16;8.90;99.90
18593;DHT22;9426;54.118;17.948;2023-03-14T18:16:40;9.00;99.90
18593;DHT22;9426;54.118;17.948;2023-03-14T18:22:09;9.10;99.90
18593;DHT22;9426;54.118;17.948;2023-03-14T18:27:35;9.30;99.90
18593;DHT22;9426;54.118;17.948;2023-03-14T18:33:04;9.30;99.90
18593;DHT22;9426;54.118;17.948;2023-03-14T18:38:29;9.40;99.90
18593;DHT22;9426;54.118;17.948;2023-03-14T18:43:54;9.70;99.90
18593;DHT22;9426;54.118;17.948;2023-03-14T18:49:19;9.50;99.90
18593;DHT22;9426;54.118;17.948;2023-03-14T18:54:44;9.40;99.90
18593;DHT22;9426;54.118;17.948;2023-03-14T19:00:10;9.20;99.90
18593;DHT22;9426;54.118;17.948;2023-03-14T19:05:42;7.60;99.90
18593;DHT22;9426;54.118;17.948;2023-03-14T19:11:08;6.50;99.90
18593;DHT22;9426;54.118;17.948;2023-03-14T19:16:35;5.90;99.90
18593;DHT22;9426;54.118;17.948;2023-03-14T19:21:59;5.20;99.90
18593;DHT22;9426;54.118;17.948;2023-03-14T19:32:49;3.50;99.90
18593;DHT22;9426;54.118;17.948;2023-03-14T19:38:14;3.00;99.90
18593;DHT22;9426;54.118;17.948;2023-03-14T19:43:38;2.40;99.90
18593;DHT22;9426;54.118;17.948;2023-03-14T19:49:03;2.30;99.90
18593;DHT22;9426;54.118;17.948;2023-03-14T19:54:28;2.30;99.90
18593;DHT22;9426;54.118;17.948;2023-03-14T19:59:52;2.30;99.90
18593;DHT22;9426;54.118;17.948;2023-03-14T20:05:18;2.30;99.90
18593;DHT22;9426;54.118;17.948;2023-03-14T20:10:42;2.20;99.90
18593;DHT22;9426;54.118;17.948;2023-03-14T20:16:08;2.10;99.90
18593;DHT22;9426;54.118;17.948;2023-03-14T20:21:34;2.00;99.90
18593;DHT22;9426;54.118;17.948;2023-03-14T20:26:58;1.90;99.90
18593;DHT22;9426;54.118;17.948;2023-03-14T20:32:22;1.80;99.90
18593;DHT22;9426;54.118;17.948;2023-03-14T20:37:48;1.90;99.90
18593;DHT22;9426;54.118;17.948;2023-03-14T20:43:13;1.70;99.90
18593;DHT22;9426;54.118;17.948;2023-03-14T20:48:36;1.60;99.90
18593;DHT22;9426;54.118;17.948;2023-03-14T20:54:02;1.70;99.90
18593;DHT22;9426;54.118;17.948;2023-03-14T20:59:26;1.50;99.90
18593;DHT22;9426;54.118;17.948;2023-03-14T21:04:50;1.50;99.90
18593;DHT22;9426;54.118;17.948;2023-03-14T21:10:16;1.50;99.90
18593;DHT22;9426;54.118;17.948;2023-03-14T21:15:40;1.40;99.90
18593;DHT22;9426;54.118;17.948;2023-03-14T21:21:04;1.30;99.90
18593;DHT22;9426;54.118;17.948;2023-03-14T21:26:30;1.20;99.90
18593;DHT22;9426;54.118;17.948;2023-03-14T21:31:54;1.30;99.90
18593;DHT22;9426;54.118;17.948;2023-03-14T21:37:17;1.20;99.90
18593;DHT22;9426;54.118;17.948;2023-03-14T21:42:43;1.10;99.90
18593;DHT22;9426;54.118;17.948;2023-03-14T21:48:07;1.10;99.90
18593;DHT22;9426;54.118;17.948;2023-03-14T21:53:31;1.20;99.90
18593;DHT22;9426;54.118;17.948;2023-03-14T21:58:56;1.20;99.90
18593;DHT22;9426;54.118;17.948;2023-03-14T22:04:22;1.20;99.90
18593;DHT22;9426;54.118;17.948;2023-03-14T22:09:47;1.10;99.90
18593;DHT22;9426;54.118;17.948;2023-03-14T22:15:12;1.20;99.90
18593;DHT22;9426;54.118;17.948;2023-03-14T22:20:36;1.30;99.90
18593;DHT22;9426;54.118;17.948;2023-03-14T22:26:00;1.30;99.90
18593;DHT22;9426;54.118;17.948;2023-03-14T22:31:24;1.50;99.90
18593;DHT22;9426;54.118;17.948;2023-03-14T22:36:48;1.50;99.90
18593;DHT22;9426;54.118;17.948;2023-03-14T22:42:12;1.50;99.90
18593;DHT22;9426;54.118;17.948;2023-03-14T22:47:38;1.50;99.90
18593;DHT22;9426;54.118;17.948;2023-03-14T22:53:02;1.60;99.90
18593;DHT22;9426;54.118;17.948;2023-03-14T22:58:26;1.70;99.90
18593;DHT22;9426;54.118;17.948;2023-03-14T23:03:51;1.70;99.90
18593;DHT22;9426;54.118;17.948;2023-03-14T23:09:16;1.80;99.90
18593;DHT22;9426;54.118;17.948;2023-03-14T23:14:40;1.90;99.90
18593;DHT22;9426;54.118;17.948;2023-03-14T23:20:06;1.90;99.90
18593;DHT22;9426;54.118;17.948;2023-03-14T23:25:30;1.90;99.90
18593;DHT22;9426;54.118;17.948;2023-03-14T23:30:59;1.90;99.90
18593;DHT22;9426;54.118;17.948;2023-03-14T23:36:25;1.90;99.90
18593;DHT22;9426;54.118;17.948;2023-03-14T23:41:49;2.00;99.90
18593;DHT22;9426;54.118;17.948;2023-03-14T23:47:12;2.00;99.90
18593;DHT22;9426;54.118;17.948;2023-03-14T23:52:38;2.10;99.90
18593;DHT22;9426;54.118;17.948;2023-03-14T23:58:01;2.00;99.90
